Time;durP1;ratioP1;P1;durP2;ratioP2;P2;SDS_P1;SDS_P2;PMS_P1;PMS_P2;Temp;Humidity;BMP_temperature;BMP_pressure;BME280_temperature;BME280_humidity;BME280_pressure;Samples;Min_cycle;Max_cycle;Signal;HPM_P1;HPM_P2
2022/01/12 00:01:28;;;;;;;17.37;11.57;;;;;;;1.57;100.00;103506.25;5049451;28;20056;-64
2022/01/12 00:03:53;;;;;;;17.47;11.37;;;;;;;1.57;100.00;103506.25;5054721;28;20021;-64
2022/01/12 00:06:19;;;;;;;16.23;12.17;;;;;;;1.59;100.00;103511.53;5049751;28;20029;-63
2022/01/12 00:08:46;;;;;;;17.93;12.77;;;;;;;1.60;100.00;103521.94;5050035;28;20029;-64
2022/01/12 00:11:12;;;;;;;16.93;12.13;;;;;;;1.62;100.00;103519.59;5049685;28;20025;-64
2022/01/12 00:13:37;;;;;;;16.83;12.07;;;;;;;1.61;100.00;103528.88;5049518;28;20491;-64
2022/01/12 00:16:04;;;;;;;16.83;11.97;;;;;;;1.62;100.00;103535.81;5058251;28;20028;-64
2022/01/12 00:18:30;;;;;;;16.93;11.40;;;;;;;1.62;100.00;103540.03;5068829;28;20020;-63
2022/01/12 00:20:56;;;;;;;17.93;12.97;;;;;;;1.61;100.00;103543.31;5068668;28;20032;-63
2022/01/12 00:23:21;;;;;;;14.13;11.07;;;;;;;1.60;100.00;103537.28;5066843;28;20040;-64
2022/01/12 00:26:06;;;;;;;14.63;11.67;;;;;;;1.59;100.00;103540.59;5049241;28;20025;-64
2022/01/12 00:34:05;;;;;;;15.77;11.93;;;;;;;1.53;100.00;103539.91;5065251;28;20067;-64
2022/01/12 00:36:31;;;;;;;17.23;12.20;;;;;;;1.53;100.00;103545.91;5049568;28;20485;-64
2022/01/12 00:38:58;;;;;;;17.17;11.67;;;;;;;1.55;100.00;103553.75;5050366;28;20044;-64
2022/01/12 00:41:23;;;;;;;16.27;11.63;;;;;;;1.53;100.00;103551.03;5049397;28;20029;-64
2022/01/12 00:43:56;;;;;;;15.63;11.00;;;;;;;1.54;100.00;103559.59;5049609;28;20021;-64
2022/01/12 00:46:22;;;;;;;17.33;12.03;;;;;;;1.53;100.00;103565.47;5049469;28;20426;-64
2022/01/12 00:48:47;;;;;;;14.80;11.13;;;;;;;1.53;100.00;103570.59;5049526;28;20056;-64
2022/01/12 00:51:12;;;;;;;18.10;12.60;;;;;;;1.52;100.00;103573.84;5053167;28;20583;-64
2022/01/12 00:53:39;;;;;;;18.80;12.77;;;;;;;1.52;100.00;103577.34;5049494;28;20459;-64
2022/01/12 00:56:06;;;;;;;18.13;12.63;;;;;;;1.52;100.00;103577.34;5049385;28;20083;-64
2022/01/12 00:58:33;;;;;;;18.33;13.20;;;;;;;1.52;100.00;103563.63;5056428;28;20039;-64
2022/01/12 01:00:58;;;;;;;18.50;13.17;;;;;;;1.50;100.00;103585.56;5066806;28;20071;-64
2022/01/12 01:03:23;;;;;;;16.83;13.03;;;;;;;1.46;100.00;103586.84;5062473;28;20072;-64
2022/01/12 01:05:49;;;;;;;19.03;13.73;;;;;;;1.43;100.00;103587.44;5068472;28;20024;-64
2022/01/12 01:08:14;;;;;;;18.67;14.03;;;;;;;1.39;100.00;103595.47;5068540;28;20464;-64
2022/01/12 01:13:06;;;;;;;20.80;15.70;;;;;;;1.29;100.00;103601.19;5067671;28;20079;-64
2022/01/12 01:26:35;;;;;;;27.93;17.27;;;;;;;1.10;100.00;103581.94;5067003;28;20119;-64
2022/01/12 01:29:01;;;;;;;26.23;18.37;;;;;;;1.04;100.00;103577.03;5061743;28;20116;-63
2022/01/12 01:31:32;;;;;;;28.07;19.47;;;;;;;0.98;100.00;103576.31;5052812;28;20576;-63
2022/01/12 01:34:05;;;;;;;;;;;;;;;0.95;100.00;103571.75;5053244;28;20112;-64
2022/01/12 01:36:31;;;;;;;27.60;18.50;;;;;;;0.93;100.00;103584.38;5051275;28;20285;-64
2022/01/12 01:38:56;;;;;;;27.53;19.33;;;;;;;0.93;100.00;103588.56;5053244;28;20037;-63
2022/01/12 01:41:22;;;;;;;28.93;19.67;;;;;;;0.91;100.00;103601.16;5052114;28;20056;-64
2022/01/12 01:44:19;;;;;;;30.80;20.43;;;;;;;0.89;100.00;103594.03;5052284;28;20481;-64
2022/01/12 01:54:50;;;;;;;30.73;21.03;;;;;;;0.77;100.00;103613.94;5071183;28;20075;-64
2022/01/12 01:57:16;;;;;;;34.57;21.53;;;;;;;0.77;100.00;103598.63;5061422;28;20059;-64
2022/01/12 01:59:41;;;;;;;34.60;22.63;;;;;;;0.78;100.00;103590.22;5051970;28;20106;-64
2022/01/12 02:02:07;;;;;;;30.67;22.50;;;;;;;0.78;100.00;103577.44;5054007;28;20374;-64
2022/01/12 02:04:32;;;;;;;37.70;23.57;;;;;;;0.78;100.00;103570.72;5051670;28;20313;-63
2022/01/12 02:06:58;;;;;;;31.57;22.10;;;;;;;0.76;100.00;103556.84;5051817;28;20056;-64
2022/01/12 02:09:27;;;;;;;34.80;22.83;;;;;;;0.76;100.00;103553.38;5052588;28;20028;-64
2022/01/12 02:11:53;;;;;;;36.37;22.97;;;;;;;0.77;100.00;103555.22;5051669;28;20078;-64
2022/01/12 02:14:20;;;;;;;35.17;23.30;;;;;;;0.75;100.00;103564.34;5051525;28;20028;-64
2022/01/12 02:17:00;;;;;;;37.80;23.40;;;;;;;0.76;100.00;103563.59;5051498;28;20024;-64
2022/01/12 02:19:53;;;;;;;34.63;23.67;;;;;;;0.76;100.00;103555.94;5057580;28;20098;-63
2022/01/12 02:36:25;;;;;;;39.33;24.00;;;;;;;0.77;100.00;103588.41;5047941;28;20094;-64
2022/01/12 02:41:38;;;;;;;35.83;24.20;;;;;;;0.76;100.00;103592.59;5048038;28;20562;-63
2022/01/12 02:54:45;;;;;;;35.83;24.13;;;;;;;0.77;100.00;103606.28;5047473;28;20029;-63
2022/01/12 02:57:10;;;;;;;34.53;24.47;;;;;;;0.77;100.00;103607.22;5047468;28;20037;-64
2022/01/12 02:59:37;;;;;;;33.07;24.10;;;;;;;0.79;100.00;103609.94;5047503;28;20045;-64
2022/01/12 03:02:24;;;;;;;34.93;24.87;;;;;;;0.81;100.00;103618.69;5047398;28;20068;-64
2022/01/12 03:05:09;;;;;;;35.10;24.03;;;;;;;0.83;100.00;103619.75;5048923;28;20130;-64
2022/01/12 03:07:37;;;;;;;31.90;22.87;;;;;;;0.86;100.00;103617.59;5064539;28;20078;-64
2022/01/12 03:10:05;;;;;;;31.77;21.77;;;;;;;0.88;100.00;103627.97;5064363;28;20082;-64
2022/01/12 03:12:30;;;;;;;32.20;22.27;;;;;;;0.90;100.00;103634.16;5068882;28;20443;-64
2022/01/12 03:14:56;;;;;;;36.13;23.27;;;;;;;0.91;100.00;103647.13;5069765;28;20032;-63
2022/01/12 03:17:21;;;;;;;33.93;21.90;;;;;;;0.92;100.00;103640.34;5069564;28;20024;-64
2022/01/12 03:19:46;;;;;;;34.23;22.93;;;;;;;0.95;100.00;103643.28;5067070;28;20115;-65
2022/01/12 03:22:12;;;;;;;33.80;24.13;;;;;;;0.94;100.00;103650.03;5069718;28;20491;-64
2022/01/12 03:24:38;;;;;;;32.30;23.43;;;;;;;0.96;100.00;103657.84;5062517;28;20098;-64
2022/01/12 03:27:05;;;;;;;35.70;23.60;;;;;;;0.95;100.00;103654.38;5050671;28;20624;-64
2022/01/12 03:29:30;;;;;;;34.93;23.17;;;;;;;0.97;100.00;103661.31;5051002;28;20033;-64
2022/01/12 03:31:57;;;;;;;35.77;23.77;;;;;;;0.95;100.00;103654.38;5050567;28;20025;-63
2022/01/12 03:34:26;;;;;;;32.47;23.27;;;;;;;0.95;100.00;103653.50;5050356;28;20020;-63
2022/01/12 03:39:36;;;;;;;38.30;25.37;;;;;;;0.94;100.00;103652.56;5063443;28;20112;-64
2022/01/12 03:42:02;;;;;;;33.87;24.47;;;;;;;0.95;100.00;103649.28;5067761;28;20423;-64
2022/01/12 03:44:27;;;;;;;37.17;25.67;;;;;;;0.94;100.00;103644.91;5069454;28;20032;-64
2022/01/12 03:46:53;;;;;;;37.07;24.53;;;;;;;0.91;100.00;103636.91;5062316;28;20029;-65
2022/01/12 03:49:20;;;;;;;40.80;26.30;;;;;;;0.91;100.00;103652.22;5069279;28;20025;-64
2022/01/12 03:51:46;;;;;;;38.30;25.90;;;;;;;0.90;100.00;103639.28;5050015;28;20431;-64
2022/01/12 03:54:12;;;;;;;45.07;26.87;;;;;;;0.88;100.00;103639.06;5060927;28;20037;-64
2022/01/12 03:56:37;;;;;;;44.63;27.23;;;;;;;0.86;100.00;103637.09;5052219;28;20071;-64
2022/01/12 03:59:04;;;;;;;41.57;27.00;;;;;;;0.86;100.00;103652.41;5050163;28;20583;-63
2022/01/12 04:01:29;;;;;;;39.40;27.57;;;;;;;0.87;100.00;103659.31;5049746;28;20049;-64
2022/01/12 04:04:03;;;;;;;39.77;27.87;;;;;;;0.86;100.00;103668.66;5050037;28;20067;-64
2022/01/12 04:09:13;;;;;;;43.30;28.07;;;;;;;0.91;100.00;103674.28;5058305;28;20103;-63
2022/01/12 04:11:39;;;;;;;41.23;27.53;;;;;;;0.90;100.00;103678.47;5069000;28;20024;-63
2022/01/12 04:14:05;;;;;;;42.17;27.60;;;;;;;0.91;100.00;103677.75;5068931;28;20036;-64
2022/01/12 04:16:31;;;;;;;44.30;28.67;;;;;;;0.91;100.00;103670.09;5067967;28;20071;-64
2022/01/12 04:18:57;;;;;;;46.03;28.27;;;;;;;0.91;100.00;103682.88;5049568;28;20037;-64
2022/01/12 04:21:28;;;;;;;48.03;27.83;;;;;;;0.91;100.00;103677.75;5049823;28;20033;-64
2022/01/12 04:23:54;;;;;;;46.47;27.25;;;;;;;0.89;100.00;103671.56;5057825;28;20025;-64
2022/01/12 04:26:19;;;;;;;39.37;27.53;;;;;;;0.88;100.00;103679.94;5061893;28;20031;-64
2022/01/12 04:28:44;;;;;;;47.90;30.57;;;;;;;0.90;100.00;103687.81;5068983;28;20016;-64
2022/01/12 04:31:11;;;;;;;48.57;28.83;;;;;;;0.89;100.00;103681.78;5049595;28;20021;-64
2022/01/12 04:33:39;;;;;;;46.77;30.03;;;;;;;0.89;100.00;103684.31;5062598;28;20033;-63
2022/01/12 04:36:06;;;;;;;48.97;31.63;;;;;;;0.88;100.00;103674.81;5068587;28;20024;-64
2022/01/12 04:38:34;;;;;;;47.57;31.20;;;;;;;0.84;100.00;103670.09;5065630;28;20025;-64
2022/01/12 04:41:01;;;;;;;49.17;31.57;;;;;;;0.78;100.00;103664.25;5068569;28;20108;-63
2022/01/12 04:43:27;;;;;;;52.93;33.10;;;;;;;0.77;100.00;103654.78;5068320;28;20020;-63
2022/01/12 04:50:51;;;;;;;50.83;33.40;;;;;;;0.78;100.00;103664.25;5065418;28;20043;-64
2022/01/12 04:53:18;;;;;;;58.80;33.60;;;;;;;0.78;100.00;103665.19;5065584;28;20025;-64
2022/01/12 04:55:43;;;;;;;58.43;34.00;;;;;;;0.79;100.00;103658.44;5049769;28;20210;-63
2022/01/12 04:58:10;;;;;;;56.30;35.13;;;;;;;0.77;100.00;103648.06;5049341;28;20112;-64
2022/01/12 05:00:37;;;;;;;55.80;33.43;;;;;;;0.78;100.00;103648.94;5051735;28;20021;-64
2022/01/12 05:13:43;;;;;;;57.70;35.97;;;;;;;0.80;100.00;103647.50;5069549;28;20039;-63
2022/01/12 05:16:12;;;;;;;58.53;35.63;;;;;;;0.81;100.00;103655.31;5064138;28;20118;-64
2022/01/12 05:18:39;;;;;;;58.50;35.10;;;;;;;0.80;100.00;103658.63;5052687;28;20027;-64
2022/01/12 05:21:05;;;;;;;56.67;35.33;;;;;;;0.82;100.00;103658.78;5052615;28;20409;-64
2022/01/12 05:23:31;;;;;;;59.60;37.10;;;;;;;0.84;100.00;103657.34;5067567;28;20021;-64
2022/01/12 05:25:58;;;;;;;56.53;34.40;;;;;;;0.83;100.00;103655.50;5071049;28;20029;-64
2022/01/12 05:28:24;;;;;;;59.67;36.53;;;;;;;0.81;100.00;103655.31;5071451;28;20028;-64
2022/01/12 05:30:51;;;;;;;59.50;36.20;;;;;;;0.82;100.00;103664.81;5071737;28;20012;-63
2022/01/12 05:33:17;;;;;;;63.83;37.90;;;;;;;0.83;100.00;103670.81;5071636;28;20028;-64
2022/01/12 05:35:43;;;;;;;62.20;36.67;;;;;;;0.84;100.00;103672.66;5071900;28;20477;-63
2022/01/12 05:38:11;;;;;;;58.37;34.70;;;;;;;0.85;100.00;103671.03;5062651;28;20351;-64
2022/01/12 05:40:38;;;;;;;59.03;35.43;;;;;;;0.86;100.00;103678.88;5056937;28;20028;-64
2022/01/12 05:43:04;;;;;;;63.47;37.60;;;;;;;0.89;100.00;103683.41;5055157;28;20054;-63
2022/01/12 05:45:33;;;;;;;54.97;35.97;;;;;;;0.89;100.00;103689.44;5052415;28;20032;-64
2022/01/12 05:50:25;;;;;;;59.30;36.20;;;;;;;0.89;100.00;103691.97;5052537;28;20036;-63
2022/01/12 05:52:50;;;;;;;60.73;35.97;;;;;;;0.89;100.00;103688.50;5054101;28;20097;-63
2022/01/12 05:55:16;;;;;;;68.97;38.83;;;;;;;0.89;100.00;103689.44;5061333;28;20032;-64
2022/01/12 05:57:42;;;;;;;62.23;38.20;;;;;;;0.90;100.00;103687.81;5052252;28;20045;-63
2022/01/12 06:00:10;;;;;;;60.87;37.83;;;;;;;0.90;100.00;103685.25;5052048;28;20103;-63
2022/01/12 06:02:35;;;;;;;63.53;37.37;;;;;;;0.87;100.00;103683.22;5057453;28;20728;-64
2022/01/12 06:05:02;;;;;;;66.13;38.57;;;;;;;0.82;100.00;103679.22;5051912;28;20100;-63
2022/01/12 06:07:27;;;;;;;70.97;38.77;;;;;;;0.81;100.00;103685.06;5052179;28;20025;-63
2022/01/12 06:09:52;;;;;;;67.53;39.83;;;;;;;0.80;100.00;103693.44;5059120;28;20540;-63
2022/01/12 06:12:19;;;;;;;64.80;40.00;;;;;;;0.81;100.00;103692.75;5066544;28;20029;-63
2022/01/12 06:14:44;;;;;;;67.97;40.47;;;;;;;0.81;100.00;103695.28;5057366;28;20021;-64
2022/01/12 06:17:10;;;;;;;65.27;40.00;;;;;;;0.79;100.00;103686.53;5049848;28;20055;-63
2022/01/12 06:19:36;;;;;;;65.20;39.50;;;;;;;0.79;100.00;103695.09;5051639;28;20079;-63
2022/01/12 06:22:02;;;;;;;71.77;41.33;;;;;;;0.81;100.00;103697.84;5050218;28;20040;-63
2022/01/12 06:24:28;;;;;;;68.27;40.00;;;;;;;0.82;100.00;103704.75;5053568;28;20047;-64
2022/01/12 06:26:55;;;;;;;66.47;40.03;;;;;;;0.83;100.00;103714.22;5057435;28;20023;-63
2022/01/12 06:31:49;;;;;;;68.07;40.47;;;;;;;0.88;100.00;103717.34;5051451;28;20469;-63
2022/01/12 06:34:15;;;;;;;69.43;41.00;;;;;;;0.90;100.00;103726.09;5051446;28;20473;-64
2022/01/12 06:36:41;;;;;;;68.03;39.70;;;;;;;0.91;100.00;103723.72;5055249;28;20473;-64
2022/01/12 06:39:10;;;;;;;62.97;39.93;;;;;;;0.90;100.00;103732.09;5057617;28;20070;-64
2022/01/12 06:41:37;;;;;;;66.43;39.90;;;;;;;0.91;100.00;103733.94;5054070;28;20029;-64
2022/01/12 06:44:04;;;;;;;71.60;40.67;;;;;;;0.91;100.00;103751.81;5054140;28;20104;-64
2022/01/12 06:46:31;;;;;;;64.63;41.40;;;;;;;0.93;100.00;103747.81;5051109;28;20029;-64
2022/01/12 06:48:57;;;;;;;66.80;39.70;;;;;;;0.94;100.00;103753.81;5051880;28;20048;-64
2022/01/12 06:51:22;;;;;;;68.03;40.17;;;;;;;0.94;100.00;103756.34;5050904;28;20473;-64
2022/01/12 06:53:48;;;;;;;65.87;39.40;;;;;;;0.95;100.00;103750.53;5055686;28;20039;-64
2022/01/12 06:56:17;;;;;;;65.13;38.90;;;;;;;0.96;100.00;103747.25;5070169;28;20435;-64
2022/01/12 06:58:46;;;;;;;69.60;40.33;;;;;;;0.96;100.00;103749.78;5067852;28;20422;-64
2022/01/12 07:01:12;;;;;;;71.50;41.87;;;;;;;0.97;100.00;103753.28;5067184;28;20025;-64
2022/01/12 07:03:37;;;;;;;67.77;40.23;;;;;;;0.98;100.00;103752.53;5070031;28;20039;-65
2022/01/12 07:06:02;;;;;;;68.97;39.73;;;;;;;0.98;100.00;103756.00;5065504;28;20021;-64
2022/01/12 07:08:28;;;;;;;66.67;38.93;;;;;;;0.99;100.00;103760.38;5050619;28;20073;-64
2022/01/12 07:10:53;;;;;;;67.70;38.90;;;;;;;0.99;100.00;103762.91;5050765;28;20090;-65
2022/01/12 07:13:19;;;;;;;64.47;38.00;;;;;;;1.00;100.00;103774.06;5056435;28;20103;-64
2022/01/12 07:15:44;;;;;;;63.30;40.43;;;;;;;1.02;100.00;103782.81;5069814;28;20420;-64
2022/01/12 07:18:11;;;;;;;61.47;37.67;;;;;;;1.03;100.00;103779.53;5069462;28;20488;-64
2022/01/12 07:20:36;;;;;;;63.00;38.73;;;;;;;1.02;100.00;103770.06;5069626;28;20024;-64
2022/01/12 07:23:02;;;;;;;68.10;39.40;;;;;;;1.01;100.00;103770.78;5068532;28;20036;-64
2022/01/12 07:25:28;;;;;;;66.67;39.40;;;;;;;1.02;100.00;103772.59;5069493;28;20032;-64
2022/01/12 07:27:53;;;;;;;64.83;39.47;;;;;;;1.01;100.00;103775.91;5065389;28;20083;-64
2022/01/12 07:30:21;;;;;;;68.03;40.23;;;;;;;1.01;100.00;103781.91;5069470;28;20028;-64
2022/01/12 07:32:46;;;;;;;69.67;39.10;;;;;;;1.02;100.00;103782.81;5069275;28;20460;-64
2022/01/12 07:35:12;;;;;;;67.67;40.70;;;;;;;1.01;100.00;103787.00;5066878;28;20036;-64
2022/01/12 07:37:37;;;;;;;64.67;39.37;;;;;;;1.02;100.00;103795.59;5065676;28;20083;-64
2022/01/12 07:40:03;;;;;;;64.83;41.03;;;;;;;1.00;100.00;103797.97;5066025;28;20029;-64
2022/01/12 07:42:28;;;;;;;63.67;39.33;;;;;;;1.00;100.00;103800.53;5064935;28;20115;-64
2022/01/12 07:44:59;;;;;;;64.03;39.63;;;;;;;1.04;100.00;103812.03;5069450;28;20111;-64
2022/01/12 07:47:26;;;;;;;65.70;40.40;;;;;;;1.03;100.00;103816.22;5069425;28;20484;-64
2022/01/12 07:49:52;;;;;;;62.57;38.77;;;;;;;1.05;100.00;103824.03;5060654;28;20051;-64
2022/01/12 07:52:17;;;;;;;64.23;38.53;;;;;;;1.06;100.00;103825.91;5047744;28;20039;-64
2022/01/12 07:54:42;;;;;;;63.77;40.90;;;;;;;1.07;100.00;103827.69;5052965;28;20082;-65
2022/01/12 07:57:08;;;;;;;72.40;43.03;;;;;;;1.08;100.00;103830.44;5055854;28;20024;-64
2022/01/12 07:59:33;;;;;;;68.97;40.10;;;;;;;1.10;100.00;103828.06;5061346;28;20025;-64
2022/01/12 08:01:58;;;;;;;62.97;39.83;;;;;;;1.10;100.00;103833.16;5049688;28;20519;-64
2022/01/12 08:04:24;;;;;;;67.87;40.83;;;;;;;1.12;100.00;103841.00;5056486;28;20036;-64
2022/01/12 08:06:49;;;;;;;73.60;41.43;;;;;;;1.14;100.00;103849.78;5054314;28;20028;-64
2022/01/12 08:09:14;;;;;;;64.47;39.63;;;;;;;1.16;100.00;103854.34;5055942;28;20468;-64
2022/01/12 08:11:40;;;;;;;71.90;39.77;;;;;;;1.19;100.00;103844.50;5060498;28;20028;-64
2022/01/12 08:14:05;;;;;;;66.37;40.40;;;;;;;1.27;100.00;103850.53;5054430;28;20057;-63
2022/01/12 08:16:30;;;;;;;66.60;40.77;;;;;;;1.33;100.00;103864.75;5049887;28;20017;-63
2022/01/12 08:18:56;;;;;;;62.23;38.67;;;;;;;1.36;100.00;103872.78;5054256;28;20093;-64
2022/01/12 08:21:23;;;;;;;74.67;47.90;;;;;;;1.39;100.00;103873.13;5053029;28;20024;-64
2022/01/12 08:23:48;;;;;;;77.07;49.70;;;;;;;1.41;100.00;103871.69;5052680;28;20164;-63
2022/01/12 08:26:14;;;;;;;63.03;39.30;;;;;;;1.43;100.00;103883.91;5053782;28;20024;-64
2022/01/12 08:28:39;;;;;;;64.60;39.30;;;;;;;1.45;100.00;103876.44;5055081;28;20025;-64
2022/01/12 08:31:04;;;;;;;76.53;43.77;;;;;;;1.48;100.00;103876.78;5056125;28;20104;-63
2022/01/12 08:33:30;;;;;;;74.00;43.13;;;;;;;1.49;100.00;103870.03;5050663;28;20031;-63
2022/01/12 08:35:55;;;;;;;71.67;40.47;;;;;;;1.48;100.00;103878.41;5063508;28;20150;-62
2022/01/12 08:38:21;;;;;;;67.03;39.07;;;;;;;1.49;100.00;103883.75;5071771;28;20021;-63
2022/01/12 08:40:46;;;;;;;72.63;40.23;;;;;;;1.49;100.00;103880.25;5069051;28;20028;-63
2022/01/12 08:43:13;;;;;;;77.97;40.83;;;;;;;1.48;100.00;103878.41;5070717;28;20069;-63
2022/01/12 08:45:38;;;;;;;74.57;40.70;;;;;;;1.47;100.00;103876.59;5057033;28;20031;-63
2022/01/12 08:48:04;;;;;;;74.27;40.70;;;;;;;1.45;100.00;103873.88;5054570;28;20392;-63
2022/01/12 08:50:29;;;;;;;81.40;40.93;;;;;;;1.46;100.00;103874.78;5057764;28;20020;-63
2022/01/12 08:52:55;;;;;;;102.07;42.93;;;;;;;1.42;100.00;103874.41;5053234;28;20024;-63
2022/01/12 08:55:22;;;;;;;83.23;44.70;;;;;;;1.43;100.00;103881.38;5054383;28;20039;-63
2022/01/12 08:57:50;;;;;;;91.77;45.77;;;;;;;1.45;100.00;103886.66;5071685;28;20116;-64
2022/01/12 09:00:17;;;;;;;97.70;44.17;;;;;;;1.49;100.00;103887.94;5061199;28;20103;-64
2022/01/12 09:02:42;;;;;;;92.10;45.03;;;;;;;1.49;100.00;103880.25;5071568;28;20083;-64
2022/01/12 09:05:08;;;;;;;87.83;43.33;;;;;;;1.52;100.00;103890.84;5067103;28;20575;-63
2022/01/12 09:07:34;;;;;;;96.30;44.83;;;;;;;1.53;100.00;103887.56;5052847;28;20028;-64
2022/01/12 09:10:00;;;;;;;88.30;44.23;;;;;;;1.55;100.00;103896.31;5051413;28;20029;-63
2022/01/12 09:12:26;;;;;;;86.00;43.57;;;;;;;1.55;100.00;103904.91;5053017;28;20103;-63
2022/01/12 09:14:53;;;;;;;79.73;39.87;;;;;;;1.58;100.00;103912.03;5055770;28;20063;-63
2022/01/12 09:17:20;;;;;;;80.87;39.73;;;;;;;1.62;100.00;103919.31;5052797;28;20021;-63
2022/01/12 09:19:46;;;;;;;100.00;53.27;;;;;;;1.70;100.00;103919.31;5052677;28;20657;-64
2022/01/12 09:22:12;;;;;;;93.30;47.37;;;;;;;1.71;100.00;103924.59;5052680;28;20065;-64
2022/01/12 09:24:38;;;;;;;72.53;38.40;;;;;;;1.74;100.00;103918.94;5053062;28;20025;-64
2022/01/12 09:27:04;;;;;;;68.80;38.27;;;;;;;1.75;100.00;103915.66;5053775;28;20476;-64
2022/01/12 09:29:29;;;;;;;65.43;35.67;;;;;;;1.77;100.00;103926.97;5052262;28;20060;-64
2022/01/12 09:31:55;;;;;;;63.03;34.93;;;;;;;1.79;100.00;103933.19;5062376;28;20052;-64
2022/01/12 09:34:20;;;;;;;60.90;34.00;;;;;;;1.80;100.00;103942.66;5070454;28;20028;-64
2022/01/12 09:36:46;;;;;;;59.63;33.53;;;;;;;1.81;100.00;103952.19;5054250;28;20466;-64
2022/01/12 09:39:11;;;;;;;56.07;32.07;;;;;;;1.82;100.00;103950.56;5055981;28;20481;-64
2022/01/12 09:41:37;;;;;;;54.33;31.50;;;;;;;1.81;100.00;103952.19;5052053;28;20196;-64
2022/01/12 09:44:03;;;;;;;51.43;29.17;;;;;;;1.82;100.00;103948.88;5052089;28;20111;-64
2022/01/12 09:46:28;;;;;;;44.47;27.23;;;;;;;1.82;100.00;103943.78;5051228;28;20024;-64
2022/01/12 09:48:55;;;;;;;52.03;29.33;;;;;;;1.83;100.00;103945.63;5052222;28;20112;-64
2022/01/12 09:51:22;;;;;;;51.33;29.57;;;;;;;1.83;100.00;103943.06;5052869;28;20076;-64
2022/01/12 09:53:49;;;;;;;52.97;30.83;;;;;;;1.86;100.00;103945.03;5052081;28;20039;-64
2022/01/12 09:56:17;;;;;;;57.30;32.40;;;;;;;1.87;100.00;103952.91;5055343;28;20064;-64
2022/01/12 09:58:43;;;;;;;64.30;34.90;;;;;;;1.90;100.00;103948.16;5061320;28;20036;-65
2022/01/12 10:01:09;;;;;;;58.93;32.10;;;;;;;1.94;100.00;103956.19;5059468;28;20380;-64
2022/01/12 10:03:35;;;;;;;49.17;30.77;;;;;;;1.95;100.00;103958.00;5059955;28;20033;-65
2022/01/12 10:06:12;;;;;;;50.27;30.60;;;;;;;1.94;100.00;103969.91;5058527;28;20094;-65
2022/01/12 10:08:37;;;;;;;55.20;32.03;;;;;;;1.95;100.00;103986.16;5059272;28;20258;-65
2022/01/12 10:11:17;;;;;;;54.63;30.77;;;;;;;1.95;100.00;103981.03;5070496;28;20448;-64
2022/01/12 10:13:43;;;;;;;54.33;31.53;;;;;;;1.96;100.00;103988.00;5055122;28;20029;-64
2022/01/12 10:16:14;;;;;;;54.37;31.57;;;;;;;1.96;100.00;103983.75;5063972;28;20278;-64
2022/01/12 10:18:52;;;;;;;;;;;;;;;1.98;100.00;103976.28;5053532;28;20459;-65
2022/01/12 10:21:25;;;;;;;53.70;31.70;;;;;;;2.00;100.00;103979.91;5050714;28;19917;-65
2022/01/12 10:24:00;;;;;;;57.07;32.57;;;;;;;2.00;100.00;103975.72;5051178;28;20036;-65
2022/01/12 10:26:31;;;;;;;54.40;31.43;;;;;;;2.01;100.00;103976.66;5055102;28;20040;-65
2022/01/12 10:29:04;;;;;;;53.85;32.47;;;;;;;2.02;100.00;103969.16;5050306;28;20481;-65
2022/01/12 10:31:41;;;;;;;49.23;30.73;;;;;;;2.02;100.00;103965.66;5050573;28;20012;-65
2022/01/12 10:34:06;;;;;;;45.80;28.70;;;;;;;2.03;100.00;103964.94;5050973;28;20025;-65
2022/01/12 10:36:42;;;;;;;47.50;28.40;;;;;;;2.05;100.00;103963.50;5065880;28;20472;-65
2022/01/12 10:39:10;;;;;;;43.47;28.00;;;;;;;2.05;100.00;103963.50;5065350;28;20037;-65
2022/01/12 10:41:36;;;;;;;43.93;26.77;;;;;;;2.05;100.00;103968.59;5063078;28;20029;-65
2022/01/12 10:44:02;;;;;;;46.50;28.23;;;;;;;2.07;100.00;103977.34;5070164;28;20028;-65
2022/01/12 10:46:29;;;;;;;46.83;27.07;;;;;;;2.07;100.00;103972.22;5066059;28;20445;-65
2022/01/12 10:48:56;;;;;;;44.93;26.50;;;;;;;2.08;100.00;103962.91;5053985;28;20052;-65
2022/01/12 10:51:28;;;;;;;44.40;27.40;;;;;;;2.08;100.00;103968.97;5055465;28;20086;-65
2022/01/12 10:53:58;;;;;;;48.07;27.00;;;;;;;2.09;100.00;103975.88;5057014;28;20532;-65
2022/01/12 10:56:24;;;;;;;47.35;27.80;;;;;;;2.12;100.00;103972.78;5049745;28;20024;-65
2022/01/12 10:58:52;;;;;;;51.20;29.20;;;;;;;2.12;100.00;103981.34;5050619;28;20604;-65
2022/01/12 11:01:24;;;;;;;50.33;27.43;;;;;;;2.12;100.00;103981.34;5051999;28;20020;-65
2022/01/12 11:03:49;;;;;;;63.67;29.30;;;;;;;2.15;100.00;103986.84;5058505;28;20033;-65
2022/01/12 11:06:15;;;;;;;73.73;45.50;;;;;;;2.18;100.00;103988.84;5051413;28;20048;-65
2022/01/12 11:08:43;;;;;;;105.20;61.80;;;;;;;2.20;100.00;103989.03;5050892;28;20327;-65
2022/01/12 11:11:09;;;;;;;61.37;33.77;;;;;;;2.20;100.00;103977.16;5050640;28;20027;-64
2022/01/12 11:13:35;;;;;;;50.40;29.13;;;;;;;2.21;100.00;103971.31;5055331;28;20032;-65
2022/01/12 11:16:01;;;;;;;70.23;38.70;;;;;;;2.23;100.00;103980.06;5050381;28;20021;-65
2022/01/12 11:18:32;;;;;;;104.47;60.90;;;;;;;2.27;100.00;103978.78;5051792;28;20024;-65
2022/01/12 11:21:33;;;;;;;80.97;34.20;;;;;;;2.33;100.00;103966.69;5067982;28;20059;-66
2022/01/12 11:23:59;;;;;;;60.63;32.05;;;;;;;2.35;100.00;103974.56;5068923;28;20141;-65
2022/01/12 11:26:28;;;;;;;56.03;30.47;;;;;;;2.37;100.00;103981.69;5067318;28;20028;-65
2022/01/12 11:28:54;;;;;;;59.77;32.93;;;;;;;2.39;100.00;103989.56;5050034;28;20029;-66
2022/01/12 11:31:32;;;;;;;59.23;30.77;;;;;;;2.41;100.00;103988.09;5050297;28;20025;-67
2022/01/12 11:33:58;;;;;;;60.67;30.77;;;;;;;2.42;100.00;103986.41;5064214;28;20485;-64
2022/01/12 11:36:36;;;;;;;59.80;31.63;;;;;;;2.43;100.00;103988.25;5053807;28;20028;-63
2022/01/12 11:39:06;;;;;;;61.47;31.50;;;;;;;2.42;100.00;103994.09;5050641;28;20085;-63
2022/01/12 11:41:37;;;;;;;61.27;32.03;;;;;;;2.44;100.00;103993.56;5065071;28;20131;-65
2022/01/12 11:44:06;;;;;;;62.13;31.15;;;;;;;2.45;100.00;103991.88;5068803;28;20034;-65
2022/01/12 11:46:47;;;;;;;54.60;29.60;;;;;;;2.44;100.00;103993.56;5069198;28;20048;-65
2022/01/12 11:49:37;;;;;;;54.15;30.65;;;;;;;2.40;100.00;103987.16;5066269;28;20024;-65
2022/01/12 11:52:19;;;;;;;60.53;30.23;;;;;;;2.41;100.00;103967.59;5054553;28;20021;-65
2022/01/12 11:54:47;;;;;;;63.73;30.77;;;;;;;2.44;100.00;103974.72;5057433;28;20033;-66
2022/01/12 11:57:18;;;;;;;65.17;29.67;;;;;;;2.44;100.00;103962.81;5057321;28;20032;-65
2022/01/12 11:59:56;;;;;;;74.40;40.75;;;;;;;2.44;100.00;103959.34;5050079;28;20472;-66
2022/01/12 12:02:39;;;;;;;64.57;33.43;;;;;;;2.39;100.00;103969.97;5060736;28;20040;-66
2022/01/12 12:05:08;;;;;;;55.47;29.47;;;;;;;2.34;100.00;103976.19;5061019;28;20165;-66
2022/01/12 12:07:50;;;;;;;58.70;31.87;;;;;;;2.29;100.00;103977.31;5055813;28;20024;-66
2022/01/12 12:10:20;;;;;;;69.60;31.17;;;;;;;2.27;100.00;103976.22;5068515;28;20036;-66
2022/01/12 12:12:46;;;;;;;56.97;31.23;;;;;;;2.26;100.00;103980.44;5061903;28;20024;-66
2022/01/12 12:15:13;;;;;;;57.53;29.77;;;;;;;2.26;100.00;103987.19;5056540;28;20484;-65
2022/01/12 12:17:41;;;;;;;61.33;30.07;;;;;;;2.25;100.00;103980.22;5057408;28;20031;-65
2022/01/12 12:20:11;;;;;;;66.67;31.10;;;;;;;2.25;100.00;103982.78;5059609;28;20029;-66
2022/01/12 12:22:40;;;;;;;61.93;30.20;;;;;;;2.26;100.00;103984.63;5056045;28;20480;-65
2022/01/12 12:25:13;;;;;;;63.80;31.23;;;;;;;2.23;100.00;103976.63;5054860;28;20032;-66
2022/01/12 12:27:45;;;;;;;61.53;29.67;;;;;;;2.19;100.00;103975.34;5058170;28;20504;-64
2022/01/12 12:30:16;;;;;;;64.90;31.47;;;;;;;2.19;100.00;103987.22;5057451;28;20059;-64
2022/01/12 12:32:48;;;;;;;60.13;30.27;;;;;;;2.22;100.00;103992.69;5063780;28;20024;-64